createdAt,value
2018-10-19T00:02:13.850Z,58.20
2018-10-19T00:04:45.680Z,58.40
2018-10-19T00:07:17.810Z,58.20
2018-10-19T00:09:49.900Z,58.30
2018-10-19T00:12:21.833Z,58.20
2018-10-19T00:14:53.607Z,58.40
2018-10-19T00:17:25.195Z,58.20
2018-10-19T00:19:56.820Z,58.30
2018-10-19T00:22:29.202Z,58.40
2018-10-19T00:25:01.010Z,58.30
2018-10-19T00:27:32.972Z,58.30
2018-10-19T00:30:05.542Z,58.30
2018-10-19T00:32:37.210Z,58.40
2018-10-19T00:35:09.970Z,58.30
2018-10-19T00:37:41.818Z,58.40
2018-10-19T00:40:13.476Z,58.30
2018-10-19T00:42:45.154Z,58.30
2018-10-19T00:45:16.998Z,58.40
2018-10-19T00:47:48.889Z,58.40
2018-10-19T00:50:20.794Z,58.30
2018-10-19T00:52:52.588Z,58.30
2018-10-19T00:55:24.338Z,58.30
2018-10-19T00:57:56.029Z,58.40
2018-10-19T01:00:27.742Z,58.70
2018-10-19T01:02:59.612Z,58.40
2018-10-19T01:05:31.542Z,58.30
2018-10-19T01:08:03.402Z,58.40
2018-10-19T01:10:34.997Z,58.40
2018-10-19T01:13:06.819Z,58.30
2018-10-19T01:15:38.525Z,58.40
2018-10-19T01:18:10.120Z,58.30
2018-10-19T01:20:41.794Z,58.40
2018-10-19T01:23:13.899Z,58.30
2018-10-19T01:25:45.789Z,58.40
2018-10-19T01:28:17.788Z,58.40
2018-10-19T01:30:49.292Z,58.40
2018-10-19T01:33:21.086Z,58.40
2018-10-19T01:35:52.876Z,58.30
2018-10-19T01:38:24.623Z,58.40
2018-10-19T01:40:56.283Z,58.50
2018-10-19T01:43:28.848Z,58.50
2018-10-19T01:46:00.600Z,58.40
2018-10-19T01:48:32.467Z,58.40
2018-10-19T01:51:04.219Z,58.40
2018-10-19T01:53:36.033Z,58.40
2018-10-19T01:56:08.542Z,58.40
2018-10-19T01:58:40.259Z,58.40
2018-10-19T02:01:12.982Z,58.40
2018-10-19T02:03:45.551Z,58.30
2018-10-19T02:06:18.126Z,58.50
2018-10-19T02:08:50.420Z,58.30
2018-10-19T02:11:22.255Z,58.30
2018-10-19T02:13:54.238Z,58.40
2018-10-19T02:16:26.794Z,58.40
2018-10-19T02:18:59.110Z,58.40
2018-10-19T02:21:30.746Z,58.30
2018-10-19T02:24:02.437Z,58.40
2018-10-19T02:26:34.747Z,58.40
2018-10-19T02:29:06.433Z,58.50
2018-10-19T02:31:38.298Z,58.40
2018-10-19T02:34:10.166Z,58.40
2018-10-19T02:36:42.902Z,58.40
2018-10-19T02:39:15.547Z,58.50
2018-10-19T02:41:48.183Z,58.50
2018-10-19T02:44:19.714Z,58.40
2018-10-19T02:46:51.638Z,58.40
2018-10-19T02:49:24.258Z,58.50
2018-10-19T02:51:55.859Z,58.50
2018-10-19T02:54:27.543Z,58.50
2018-10-19T02:56:59.509Z,58.50
2018-10-19T02:59:31.140Z,58.50
2018-10-19T03:02:02.943Z,58.40
2018-10-19T03:04:34.640Z,58.40
2018-10-19T03:07:06.756Z,58.50
2018-10-19T03:09:38.436Z,58.50
2018-10-19T03:12:10.169Z,58.60
2018-10-19T03:14:41.883Z,58.40
2018-10-19T03:17:13.754Z,58.60
2018-10-19T03:19:45.623Z,58.50
2018-10-19T03:22:17.347Z,58.50
2018-10-19T03:24:48.949Z,58.40
2018-10-19T03:27:20.490Z,58.40
2018-10-19T03:29:52.193Z,58.40
2018-10-19T03:32:23.800Z,58.40
2018-10-19T03:34:55.696Z,58.40
2018-10-19T03:37:27.309Z,59.00
2018-10-19T03:39:59.071Z,58.30
2018-10-19T03:42:30.867Z,58.40
2018-10-19T03:45:02.644Z,58.30
2018-10-19T03:47:34.684Z,58.40
2018-10-19T03:50:06.639Z,58.30
2018-10-19T03:52:38.306Z,58.30
2018-10-19T03:55:10.015Z,58.30
2018-10-19T03:57:41.738Z,58.30
2018-10-19T04:00:13.388Z,58.30
2018-10-19T04:02:45.282Z,58.20
2018-10-19T04:05:17.879Z,58.30
2018-10-19T04:07:49.698Z,58.30
2018-10-19T04:10:21.423Z,58.20
2018-10-19T04:12:53.074Z,58.30
2018-10-19T04:15:25.370Z,58.30
2018-10-19T04:17:57.074Z,58.20
2018-10-19T04:20:28.718Z,58.30
2018-10-19T04:23:07.131Z,57.90
2018-10-19T04:25:40.827Z,58.20
2018-10-19T04:28:12.760Z,58.30
2018-10-19T04:30:44.522Z,58.20
2018-10-19T04:33:16.446Z,59.20
2018-10-19T04:35:48.350Z,58.40
2018-10-19T04:38:20.993Z,59.20
2018-10-19T04:40:53.452Z,59.20
2018-10-19T04:43:25.070Z,59.10
2018-10-19T04:45:56.824Z,59.20
2018-10-19T04:48:29.139Z,59.20
2018-10-19T04:51:00.932Z,59.20
2018-10-19T04:53:32.719Z,59.20
2018-10-19T04:56:04.514Z,59.20
2018-10-19T04:58:36.338Z,59.10
2018-10-19T05:01:08.179Z,59.20
2018-10-19T05:03:39.922Z,59.20
2018-10-19T05:06:12.342Z,58.80
2018-10-19T05:08:43.964Z,59.10
2018-10-19T05:11:15.896Z,59.00
2018-10-19T05:13:47.405Z,59.10
2018-10-19T05:16:19.956Z,59.20
2018-10-19T05:18:52.879Z,59.30
2018-10-19T05:21:24.998Z,59.30
2018-10-19T05:23:57.634Z,58.80
2018-10-19T05:26:29.288Z,59.10
2018-10-19T05:29:00.975Z,59.20
2018-10-19T05:31:32.745Z,59.30
2018-10-19T05:34:04.339Z,59.10
2018-10-19T05:36:36.047Z,59.20
2018-10-19T05:39:10.207Z,59.40
2018-10-19T05:41:41.979Z,59.30
2018-10-19T05:44:13.692Z,59.40
2018-10-19T05:46:45.583Z,59.40
2018-10-19T05:49:18.111Z,59.50
2018-10-19T05:51:49.699Z,59.50
2018-10-19T05:54:22.013Z,59.70
2018-10-19T05:56:53.779Z,59.00
2018-10-19T05:59:25.651Z,58.90
2018-10-19T06:01:57.700Z,59.10
2018-10-19T06:04:29.362Z,59.50
2018-10-19T06:07:01.237Z,59.50
2018-10-19T06:09:33.144Z,59.50
2018-10-19T06:12:04.795Z,59.20
2018-10-19T06:14:36.639Z,59.30
2018-10-19T06:17:08.526Z,59.30
2018-10-19T06:19:41.009Z,59.00
2018-10-19T06:22:12.475Z,59.10
2018-10-19T06:24:44.803Z,59.20
2018-10-19T06:27:16.613Z,59.20
2018-10-19T06:29:48.493Z,59.40
2018-10-19T06:32:20.121Z,59.20
2018-10-19T06:34:51.901Z,59.40
2018-10-19T06:37:23.851Z,59.20
2018-10-19T06:39:55.732Z,59.10
2018-10-19T06:42:28.265Z,59.40
2018-10-19T06:44:59.928Z,59.60
2018-10-19T06:47:31.719Z,59.40
2018-10-19T06:50:03.596Z,59.30
2018-10-19T06:52:35.433Z,59.30
2018-10-19T06:55:08.455Z,59.40
2018-10-19T06:57:40.847Z,59.60
2018-10-19T07:00:12.675Z,59.50
2018-10-19T07:02:44.357Z,59.70
2018-10-19T07:05:16.349Z,59.90
2018-10-19T07:07:48.155Z,60.50
2018-10-19T07:10:19.966Z,59.70
2018-10-19T07:12:51.497Z,59.90
2018-10-19T07:15:23.182Z,60.10
2018-10-19T07:17:54.943Z,60.30
2018-10-19T07:20:26.935Z,60.70
2018-10-19T07:22:59.506Z,60.70
2018-10-19T07:25:31.124Z,60.60
2018-10-19T07:28:02.961Z,60.40
2018-10-19T07:30:35.646Z,60.50
2018-10-19T07:33:10.489Z,60.70
2018-10-19T07:35:42.327Z,60.70
2018-10-19T07:38:15.201Z,60.80
2018-10-19T07:40:46.855Z,60.90
2018-10-19T07:43:19.353Z,60.80
2018-10-19T07:45:50.998Z,60.80
2018-10-19T07:48:26.391Z,60.20
2018-10-19T07:51:00.287Z,61.00
2018-10-19T07:53:32.494Z,61.00
2018-10-19T07:56:04.271Z,61.10
2018-10-19T07:58:36.163Z,61.10
2018-10-19T08:01:12.062Z,61.30
2018-10-19T08:03:44.887Z,61.30
2018-10-19T08:06:18.659Z,61.60
2018-10-19T08:08:51.369Z,61.60
2018-10-19T08:11:23.590Z,61.70
2018-10-19T08:13:55.561Z,62.00
2018-10-19T08:16:27.696Z,61.90
2018-10-19T08:18:59.365Z,62.00
2018-10-19T08:21:31.516Z,62.00
2018-10-19T08:24:03.520Z,62.30
2018-10-19T08:26:35.854Z,62.60
2018-10-19T08:29:07.988Z,62.50
2018-10-19T08:31:40.065Z,62.70
2018-10-19T08:34:15.151Z,62.70
2018-10-19T08:36:47.345Z,62.70
2018-10-19T08:39:18.896Z,63.40
2018-10-19T08:41:51.801Z,63.20
2018-10-19T08:44:23.742Z,62.10
2018-10-19T08:46:55.869Z,62.50
2018-10-19T08:49:27.990Z,62.50
2018-10-19T08:52:00.915Z,62.50
2018-10-19T08:54:34.560Z,62.80
2018-10-19T08:57:07.369Z,63.00
2018-10-19T08:59:39.626Z,63.00
2018-10-19T09:02:11.436Z,63.20
2018-10-19T09:04:46.190Z,63.20
2018-10-19T09:07:18.179Z,63.20
2018-10-19T09:09:51.190Z,63.70
2018-10-19T09:12:24.616Z,63.70
2018-10-19T09:15:01.678Z,63.80
2018-10-19T09:17:34.988Z,63.80
2018-10-19T09:20:07.729Z,64.00
2018-10-19T09:22:40.314Z,64.20
2018-10-19T09:25:13.048Z,65.00
2018-10-19T09:27:46.355Z,64.20
2018-10-19T09:30:18.175Z,64.80
2018-10-19T09:32:50.125Z,64.40
2018-10-19T09:35:22.798Z,64.60
2018-10-19T09:38:00.427Z,64.50
2018-10-19T09:40:37.808Z,64.60
2018-10-19T09:43:10.229Z,65.00
2018-10-19T09:45:42.240Z,65.30
2018-10-19T09:48:18.101Z,65.40
2018-10-19T09:50:49.849Z,65.60
2018-10-19T09:53:21.423Z,65.40
2018-10-19T09:55:53.203Z,65.00
2018-10-19T09:58:25.793Z,65.20
2018-10-19T10:00:58.742Z,65.30
2018-10-19T10:03:30.797Z,65.50
2018-10-19T10:06:03.673Z,65.90
2018-10-19T10:08:36.137Z,65.50
2018-10-19T10:11:08.158Z,65.40
2018-10-19T10:13:40.037Z,65.40
2018-10-19T10:16:11.643Z,65.20
2018-10-19T10:18:44.265Z,65.20
2018-10-19T10:21:15.927Z,65.20
2018-10-19T10:23:47.609Z,64.90
2018-10-19T10:26:20.137Z,65.10
2018-10-19T10:28:51.848Z,65.10
2018-10-19T10:31:23.713Z,64.90
2018-10-19T10:33:55.670Z,65.00
2018-10-19T10:36:28.393Z,65.10
2018-10-19T10:39:00.144Z,65.10
2018-10-19T10:41:31.907Z,65.10
2018-10-19T10:44:03.823Z,65.10
2018-10-19T10:46:35.565Z,65.20
2018-10-19T10:49:07.567Z,65.10
2018-10-19T10:51:39.427Z,65.20
2018-10-19T10:54:11.161Z,65.20
2018-10-19T10:56:42.865Z,65.10
2018-10-19T10:59:14.727Z,65.10
2018-10-19T11:01:46.616Z,65.20
2018-10-19T11:04:18.497Z,65.10
2018-10-19T11:06:50.261Z,65.30
2018-10-19T11:09:22.209Z,65.40
2018-10-19T11:11:53.883Z,65.30
2018-10-19T11:14:25.661Z,65.30
2018-10-19T11:16:57.499Z,65.20
2018-10-19T11:19:29.300Z,65.30
2018-10-19T11:22:02.222Z,65.40
2018-10-19T11:24:34.086Z,65.30
2018-10-19T11:27:06.425Z,65.50
2018-10-19T11:29:39.106Z,65.40
2018-10-19T11:32:11.446Z,65.40
2018-10-19T11:34:45.451Z,65.20
2018-10-19T11:37:17.736Z,65.10
2018-10-19T11:40:00.276Z,65.10
2018-10-19T11:42:32.138Z,65.10
2018-10-19T11:45:04.037Z,65.10
2018-10-19T11:47:35.762Z,65.20
2018-10-19T11:50:07.788Z,65.30
2018-10-19T11:52:40.088Z,65.70
2018-10-19T11:55:11.887Z,65.10
2018-10-19T11:57:44.512Z,65.20
2018-10-19T12:00:16.321Z,65.10
2018-10-19T12:02:48.770Z,65.80
2018-10-19T12:05:21.634Z,65.00
2018-10-19T12:07:53.456Z,65.10
2018-10-19T12:10:25.096Z,65.10
2018-10-19T12:12:56.882Z,65.00
2018-10-19T12:15:28.723Z,65.10
2018-10-19T12:18:00.324Z,65.00
2018-10-19T12:20:32.274Z,65.20
2018-10-19T12:23:04.282Z,65.10
2018-10-19T12:25:36.706Z,65.00
2018-10-19T12:28:08.926Z,65.10
2018-10-19T12:30:40.751Z,65.10
2018-10-19T12:33:12.672Z,65.20
2018-10-19T12:35:44.269Z,65.10
2018-10-19T12:38:16.160Z,65.20
2018-10-19T12:40:47.986Z,65.20
2018-10-19T12:43:19.835Z,65.20
2018-10-19T12:46:34.132Z,65.20
2018-10-19T12:49:06.385Z,65.10
2018-10-19T12:51:38.469Z,65.00
2018-10-19T12:54:11.895Z,65.00
2018-10-19T12:56:43.646Z,65.00
2018-10-19T12:59:15.553Z,65.10
2018-10-19T13:01:47.558Z,65.10
2018-10-19T13:04:19.305Z,65.00
2018-10-19T13:06:51.302Z,65.00
2018-10-19T13:09:23.073Z,65.00
2018-10-19T13:11:55.769Z,64.90
2018-10-19T13:14:27.498Z,65.00
2018-10-19T13:16:59.186Z,64.90
2018-10-19T13:19:31.017Z,65.00
2018-10-19T13:22:02.589Z,64.90
2018-10-19T13:24:34.491Z,65.20
2018-10-19T13:27:06.399Z,65.00
2018-10-19T13:29:38.205Z,65.00
2018-10-19T13:32:10.748Z,65.00
2018-10-19T13:34:42.425Z,65.00
2018-10-19T13:37:14.212Z,65.00
2018-10-19T13:39:46.122Z,65.10
2018-10-19T13:42:18.065Z,65.00
2018-10-19T13:44:49.997Z,65.00
2018-10-19T13:47:21.621Z,65.00
2018-10-19T13:49:53.410Z,65.00
2018-10-19T13:52:25.586Z,65.10
2018-10-19T13:54:57.583Z,65.00
2018-10-19T13:57:29.262Z,65.00
2018-10-19T14:00:01.384Z,65.00
2018-10-19T14:02:33.280Z,64.90
2018-10-19T14:05:05.064Z,65.00
2018-10-19T14:07:36.938Z,65.00
2018-10-19T14:10:10.658Z,65.20
2018-10-19T14:12:42.411Z,65.00
2018-10-19T14:15:14.220Z,65.00
2018-10-19T14:17:46.128Z,65.00
2018-10-19T14:20:17.763Z,65.00
2018-10-19T14:22:49.635Z,65.00
2018-10-19T14:25:22.268Z,64.90
2018-10-19T14:27:55.049Z,65.00
2018-10-19T14:30:27.051Z,65.00
2018-10-19T14:32:58.791Z,65.00
2018-10-19T14:35:31.661Z,64.90
2018-10-19T14:38:03.813Z,65.00
2018-10-19T14:40:35.461Z,65.00
2018-10-19T14:43:07.197Z,64.80
2018-10-19T14:45:38.912Z,65.00
2018-10-19T14:48:10.582Z,64.90
2018-10-19T14:50:42.456Z,65.00
2018-10-19T14:53:15.131Z,65.00
2018-10-19T14:55:46.874Z,64.90
2018-10-19T14:58:18.780Z,65.00
2018-10-19T15:00:50.639Z,65.00
2018-10-19T15:03:22.280Z,65.00
2018-10-19T15:05:54.034Z,64.90
2018-10-19T15:08:25.771Z,64.90
2018-10-19T15:10:57.517Z,65.00
2018-10-19T15:13:29.379Z,65.00
2018-10-19T15:16:02.147Z,65.00
2018-10-19T15:18:34.270Z,64.70
2018-10-19T15:21:06.379Z,64.70
2018-10-19T15:23:38.313Z,64.60
2018-10-19T15:26:09.996Z,64.60
2018-10-19T15:28:41.834Z,64.40
2018-10-19T15:31:13.723Z,64.50
2018-10-19T15:33:45.651Z,64.70
2018-10-19T15:36:17.463Z,64.60
2018-10-19T15:38:49.391Z,64.70
2018-10-19T15:41:21.315Z,64.70
2018-10-19T15:43:53.913Z,64.80
2018-10-19T15:46:26.130Z,65.00
2018-10-19T15:48:58.056Z,65.00
2018-10-19T15:51:30.154Z,65.10
2018-10-19T15:54:02.460Z,65.20
2018-10-19T15:56:34.487Z,65.20
2018-10-19T15:59:06.635Z,65.20
2018-10-19T16:01:39.061Z,65.30
2018-10-19T16:04:10.937Z,65.30
2018-10-19T16:06:42.792Z,65.30
2018-10-19T16:09:15.904Z,65.50
2018-10-19T16:11:48.448Z,65.50
2018-10-19T16:14:21.156Z,65.50
2018-10-19T16:16:53.020Z,65.50
2018-10-19T16:19:24.838Z,65.50
2018-10-19T16:21:56.702Z,65.60
2018-10-19T16:24:29.304Z,65.70
2018-10-19T16:27:02.293Z,65.70
2018-10-19T16:29:34.158Z,65.70
2018-10-19T16:32:06.548Z,65.70
2018-10-19T16:34:38.574Z,65.80
2018-10-19T16:37:10.428Z,65.80
2018-10-19T16:39:42.298Z,65.80
2018-10-19T16:42:13.983Z,65.80
2018-10-19T16:44:45.904Z,65.80
2018-10-19T16:47:17.995Z,65.90
2018-10-19T16:49:50.367Z,65.90
2018-10-19T16:52:23.047Z,65.90
2018-10-19T16:54:55.356Z,65.90
2018-10-19T16:57:26.982Z,65.90
2018-10-19T16:59:58.942Z,66.00
2018-10-19T17:02:31.010Z,66.00
2018-10-19T17:05:02.932Z,66.00
2018-10-19T17:07:35.496Z,66.00
2018-10-19T17:10:08.509Z,66.00
2018-10-19T17:12:40.270Z,65.90
2018-10-19T17:15:12.484Z,66.50
2018-10-19T17:17:44.732Z,66.00
2018-10-19T17:20:17.501Z,65.90
2018-10-19T17:22:50.281Z,65.90
2018-10-19T17:25:22.903Z,65.90
2018-10-19T17:27:55.598Z,65.80
2018-10-19T17:30:27.603Z,65.90
2018-10-19T17:32:59.787Z,65.90
2018-10-19T17:35:31.785Z,65.80
2018-10-19T17:38:04.633Z,65.90
2018-10-19T17:40:37.295Z,66.00
2018-10-19T17:43:09.895Z,66.00
2018-10-19T17:45:41.988Z,66.00
2018-10-19T17:48:13.972Z,66.00
2018-10-19T17:50:46.569Z,66.00
2018-10-19T17:53:19.353Z,66.10
2018-10-19T17:55:51.461Z,66.00
2018-10-19T17:58:23.372Z,66.00
2018-10-19T18:00:55.106Z,66.00
2018-10-19T18:03:27.198Z,66.10
2018-10-19T18:05:59.106Z,66.50
2018-10-19T18:08:31.528Z,66.00
2018-10-19T18:11:03.459Z,66.00
2018-10-19T18:13:35.790Z,66.00
2018-10-19T18:16:07.559Z,66.20
2018-10-19T18:18:39.202Z,66.20
2018-10-19T18:21:11.285Z,66.10
2018-10-19T18:23:43.044Z,66.10
2018-10-19T18:26:15.554Z,66.20
2018-10-19T18:28:47.868Z,66.20
2018-10-19T18:31:20.149Z,66.10
2018-10-19T18:33:52.882Z,66.10
2018-10-19T18:36:24.982Z,66.10
2018-10-19T18:38:57.265Z,65.90
2018-10-19T18:41:30.291Z,66.00
2018-10-19T18:44:02.439Z,65.90
2018-10-19T18:46:34.584Z,66.10
2018-10-19T18:49:08.815Z,66.00
2018-10-19T18:51:40.434Z,66.10
2018-10-19T18:54:12.394Z,66.10
2018-10-19T18:56:44.524Z,67.00
2018-10-19T18:59:16.869Z,66.20
2018-10-19T19:01:48.694Z,66.40
2018-10-19T19:04:21.563Z,66.10
2018-10-19T19:06:53.484Z,66.10
2018-10-19T19:09:25.743Z,66.20
2018-10-19T19:11:57.515Z,66.30
2018-10-19T19:14:29.882Z,66.40
2018-10-19T19:17:01.762Z,66.40
2018-10-19T19:19:33.636Z,66.20
2018-10-19T19:22:05.858Z,66.40
2018-10-19T19:24:42.707Z,66.40
2018-10-19T19:27:14.777Z,66.30
2018-10-19T19:29:46.679Z,66.40
2018-10-19T19:32:18.514Z,66.20
2018-10-19T19:34:50.450Z,66.10
2018-10-19T19:37:22.603Z,66.30
2018-10-19T19:39:54.328Z,66.30
2018-10-19T19:42:31.266Z,66.30
2018-10-19T19:45:02.993Z,66.40
2018-10-19T19:47:40.874Z,66.40
2018-10-19T19:50:12.835Z,66.40
2018-10-19T19:52:44.676Z,66.50
2018-10-19T19:55:16.475Z,66.40
2018-10-19T19:57:48.453Z,66.20
2018-10-19T20:00:20.420Z,66.30
2018-10-19T20:02:53.703Z,66.00
2018-10-19T20:05:26.391Z,66.20
2018-10-19T20:07:59.192Z,66.40
2018-10-19T20:10:32.049Z,65.50
2018-10-19T20:13:04.827Z,65.60
2018-10-19T20:15:36.594Z,65.30
2018-10-19T20:18:08.383Z,65.00
2018-10-19T20:20:40.232Z,64.80
2018-10-19T20:23:12.437Z,64.80
2018-10-19T20:25:44.571Z,64.60
2018-10-19T20:28:16.483Z,64.20
2018-10-19T20:30:48.504Z,64.40
2018-10-19T20:33:21.281Z,64.30
2018-10-19T20:35:54.221Z,64.20
2018-10-19T20:38:26.025Z,64.10
2018-10-19T20:40:57.769Z,64.10
2018-10-19T20:43:29.835Z,63.90
2018-10-19T20:46:01.422Z,63.90
2018-10-19T20:48:33.145Z,63.90
2018-10-19T20:51:05.035Z,64.00
2018-10-19T20:53:37.245Z,63.90
2018-10-19T20:56:09.192Z,64.00
2018-10-19T20:58:41.074Z,63.90
2018-10-19T21:01:13.053Z,63.80
2018-10-19T21:03:45.291Z,63.90
2018-10-19T21:06:17.392Z,63.80
2018-10-19T21:08:49.252Z,63.70
2018-10-19T21:11:21.074Z,63.60
2018-10-19T21:13:53.041Z,63.70
2018-10-19T21:16:25.520Z,63.50
2018-10-19T21:18:57.377Z,63.50
2018-10-19T21:21:29.371Z,63.40
2018-10-19T21:24:02.112Z,63.40
2018-10-19T21:26:35.150Z,63.50
2018-10-19T21:29:07.259Z,63.10
2018-10-19T21:31:39.093Z,63.10
2018-10-19T21:34:11.285Z,63.30
2018-10-19T21:36:43.145Z,63.10
2018-10-19T21:39:15.004Z,63.00
2018-10-19T21:41:47.144Z,63.20
2018-10-19T21:44:19.440Z,63.20
2018-10-19T21:46:51.718Z,63.20
2018-10-19T21:49:23.458Z,62.80
2018-10-19T21:51:55.396Z,63.00
2018-10-19T21:54:27.327Z,62.90
2018-10-19T21:57:00.175Z,62.80
2018-10-19T21:59:31.980Z,62.60
2018-10-19T22:02:03.776Z,62.90
2018-10-19T22:04:35.527Z,62.70
2018-10-19T22:07:07.313Z,62.80
2018-10-19T22:09:39.487Z,62.80
2018-10-19T22:12:11.324Z,62.90
2018-10-19T22:14:43.075Z,62.80
2018-10-19T22:17:15.493Z,62.80
2018-10-19T22:19:47.113Z,63.10
2018-10-19T22:22:18.905Z,62.80
2018-10-19T22:24:50.756Z,62.70
2018-10-19T22:27:22.861Z,62.70
2018-10-19T22:29:54.650Z,62.70
2018-10-19T22:32:26.589Z,62.70
2018-10-19T22:34:58.490Z,62.70
2018-10-19T22:37:30.518Z,62.80
2018-10-19T22:40:02.223Z,62.70
2018-10-19T22:42:34.122Z,62.80
2018-10-19T22:45:06.020Z,62.80
2018-10-19T22:47:37.726Z,62.90
2018-10-19T22:50:09.629Z,63.00
2018-10-19T22:52:41.479Z,62.80
2018-10-19T22:55:13.401Z,63.00
2018-10-19T22:57:45.287Z,62.90
2018-10-19T23:00:17.241Z,63.10
2018-10-19T23:02:48.905Z,63.00
2018-10-19T23:05:21.534Z,63.20
2018-10-19T23:07:53.206Z,63.00
2018-10-19T23:10:25.111Z,63.10
2018-10-19T23:12:56.856Z,63.10
2018-10-19T23:15:28.803Z,63.10
2018-10-19T23:18:01.435Z,63.20
2018-10-19T23:20:33.004Z,63.30
2018-10-19T23:23:04.816Z,63.20
2018-10-19T23:25:36.634Z,63.30
2018-10-19T23:28:08.470Z,63.30
2018-10-19T23:30:40.147Z,63.20
2018-10-19T23:33:11.855Z,63.10
2018-10-19T23:35:44.274Z,63.20
2018-10-19T23:38:15.887Z,63.40
2018-10-19T23:40:47.600Z,63.40
2018-10-19T23:43:19.934Z,63.50
2018-10-19T23:45:51.724Z,63.50
2018-10-19T23:48:23.607Z,63.50
2018-10-19T23:50:55.246Z,63.50
2018-10-19T23:53:27.003Z,63.60
2018-10-19T23:55:58.802Z,63.60
2018-10-19T23:58:31.087Z,63.80
